createdAt,value
2022-11-29T00:01:42.127Z,2.5
2022-11-29T00:04:42.444Z,2.5
2022-11-29T00:07:42.125Z,2.5
2022-11-29T00:10:42.109Z,2.5
2022-11-29T00:13:42.110Z,2.5
2022-11-29T00:16:42.154Z,2.5
2022-11-29T00:19:42.114Z,2.6
2022-11-29T00:22:42.144Z,2.5
2022-11-29T00:25:42.115Z,2.5
2022-11-29T00:28:42.117Z,2.6
2022-11-29T00:31:42.118Z,2.6
2022-11-29T00:34:42.473Z,2.5
2022-11-29T00:37:42.124Z,2.5
2022-11-29T00:40:42.175Z,2.5
2022-11-29T00:43:42.147Z,2.5
2022-11-29T00:46:42.132Z,2.5
2022-11-29T00:49:42.131Z,2.6
2022-11-29T00:52:42.133Z,2.6
2022-11-29T00:55:42.132Z,2.6
2022-11-29T00:58:42.161Z,2.5
2022-11-29T01:01:42.238Z,2.5
2022-11-29T01:04:42.313Z,2.5
2022-11-29T01:07:42.184Z,2.6
2022-11-29T01:10:42.139Z,2.6
2022-11-29T01:13:42.152Z,2.6
2022-11-29T01:16:42.210Z,2.6
2022-11-29T01:19:45.215Z,2.6
2022-11-29T01:22:42.149Z,2.6
2022-11-29T01:25:42.150Z,2.6
2022-11-29T01:28:42.149Z,2.6
2022-11-29T01:31:42.150Z,2.6
2022-11-29T01:34:42.523Z,2.6
2022-11-29T01:37:42.152Z,2.6
2022-11-29T01:40:42.158Z,2.6
2022-11-29T01:43:42.158Z,2.6
2022-11-29T01:46:42.155Z,2.6
2022-11-29T01:49:42.159Z,2.6
2022-11-29T01:52:42.190Z,2.6
2022-11-29T01:55:42.190Z,2.6
2022-11-29T01:58:42.169Z,2.6
2022-11-29T02:01:42.234Z,2.6
2022-11-29T02:04:42.388Z,2.6
2022-11-29T02:07:42.215Z,2.6
2022-11-29T02:10:42.201Z,2.6
2022-11-29T02:13:42.173Z,2.6
2022-11-29T02:16:42.180Z,2.6
2022-11-29T02:19:42.180Z,2.6
2022-11-29T02:22:42.180Z,2.6
2022-11-29T02:25:42.183Z,2.6
2022-11-29T02:28:42.216Z,2.6
2022-11-29T02:31:42.186Z,2.6
2022-11-29T02:34:42.402Z,2.6
2022-11-29T02:37:42.190Z,2.6
2022-11-29T02:40:42.193Z,2.6
2022-11-29T02:43:42.193Z,2.5
2022-11-29T02:46:42.224Z,2.6
2022-11-29T02:49:42.203Z,2.6
2022-11-29T02:52:42.204Z,2.6
2022-11-29T02:55:42.202Z,2.5
2022-11-29T02:58:42.222Z,2.5
2022-11-29T03:01:42.248Z,2.5
2022-11-29T03:04:42.436Z,2.5
2022-11-29T03:07:42.248Z,2.5
2022-11-29T03:10:42.219Z,2.5
2022-11-29T03:13:42.219Z,2.5
2022-11-29T03:16:43.392Z,2.5
2022-11-29T03:19:42.225Z,2.5
2022-11-29T03:22:42.255Z,2.5
2022-11-29T03:25:42.232Z,2.5
2022-11-29T03:28:42.232Z,2.5
2022-11-29T03:31:42.232Z,2.6
2022-11-29T03:34:42.463Z,2.6
2022-11-29T03:37:42.234Z,2.6
2022-11-29T03:40:42.262Z,2.5
2022-11-29T03:43:42.237Z,2.5
2022-11-29T03:46:42.353Z,2.5
2022-11-29T03:49:42.267Z,2.5
2022-11-29T03:52:42.242Z,2.6
2022-11-29T03:55:42.246Z,2.5
2022-11-29T03:58:42.278Z,2.5
2022-11-29T04:01:42.311Z,2.5
2022-11-29T04:04:42.393Z,2.5
2022-11-29T04:07:42.302Z,2.5
2022-11-29T04:10:42.257Z,2.5
2022-11-29T04:13:42.259Z,2.5
2022-11-29T04:16:42.300Z,2.6
2022-11-29T04:19:42.265Z,2.5
2022-11-29T04:22:42.266Z,2.6
2022-11-29T04:25:42.281Z,2.6
2022-11-29T04:28:42.272Z,2.6
2022-11-29T04:31:42.274Z,2.6
2022-11-29T04:34:42.468Z,2.6
2022-11-29T04:37:42.277Z,2.6
2022-11-29T04:40:42.284Z,2.6
2022-11-29T04:43:42.286Z,2.6
2022-11-29T04:46:42.317Z,2.6
2022-11-29T04:49:42.294Z,2.6
2022-11-29T04:52:42.324Z,2.6
2022-11-29T04:55:42.299Z,2.6
2022-11-29T04:58:42.308Z,2.6
2022-11-29T05:01:42.337Z,2.6
2022-11-29T05:04:42.555Z,2.6
2022-11-29T05:07:42.321Z,2.6
2022-11-29T05:10:42.345Z,2.6
2022-11-29T05:13:42.316Z,2.6
2022-11-29T05:16:42.319Z,2.6
2022-11-29T05:19:42.326Z,2.7
2022-11-29T05:22:42.326Z,2.6
2022-11-29T05:25:42.327Z,2.7
2022-11-29T05:28:42.385Z,2.6
2022-11-29T05:31:42.330Z,2.6
2022-11-29T05:34:42.334Z,2.6
2022-11-29T05:37:42.340Z,2.6
2022-11-29T05:40:42.343Z,2.7
2022-11-29T05:43:42.355Z,2.6
2022-11-29T05:46:42.428Z,2.7
2022-11-29T05:49:42.350Z,2.6
2022-11-29T05:52:42.354Z,2.6
2022-11-29T05:55:42.358Z,2.6
2022-11-29T05:58:42.354Z,2.6
2022-11-29T06:01:42.495Z,2.6
2022-11-29T06:04:42.653Z,2.6
2022-11-29T06:07:42.406Z,2.6
2022-11-29T06:10:42.375Z,2.6
2022-11-29T06:13:42.382Z,2.6
2022-11-29T06:16:42.381Z,2.6
2022-11-29T06:19:42.389Z,2.6
2022-11-29T06:22:42.417Z,2.6
2022-11-29T06:25:42.390Z,2.6
2022-11-29T06:28:42.398Z,2.6
2022-11-29T06:31:42.445Z,2.6
2022-11-29T06:34:42.399Z,2.6
2022-11-29T06:37:42.400Z,2.6
2022-11-29T06:40:42.433Z,2.6
2022-11-29T06:43:42.408Z,2.6
2022-11-29T06:46:42.427Z,2.6
2022-11-29T06:49:42.416Z,2.6
2022-11-29T06:52:42.415Z,2.6
2022-11-29T06:55:42.419Z,2.6
2022-11-29T06:58:42.446Z,2.6
2022-11-29T07:01:42.471Z,2.6
2022-11-29T07:04:45.821Z,2.6
2022-11-29T07:07:42.517Z,2.7
2022-11-29T07:10:42.439Z,2.6
2022-11-29T07:13:42.440Z,2.7
2022-11-29T07:16:42.527Z,2.7
2022-11-29T07:19:42.450Z,2.7
2022-11-29T07:22:42.456Z,2.7
2022-11-29T07:25:42.456Z,2.7
2022-11-29T07:28:42.453Z,2.7
2022-11-29T07:31:42.521Z,2.7
2022-11-29T07:34:42.630Z,2.7
2022-11-29T07:37:42.462Z,2.7
2022-11-29T07:40:42.464Z,2.8
2022-11-29T07:43:42.472Z,2.8
2022-11-29T07:46:42.528Z,2.8
2022-11-29T07:49:42.489Z,2.9
2022-11-29T07:52:42.514Z,2.9
2022-11-29T07:55:42.496Z,2.9
2022-11-29T07:58:42.527Z,2.9
2022-11-29T08:01:42.519Z,3
2022-11-29T08:04:42.675Z,3
2022-11-29T08:07:42.568Z,3
2022-11-29T08:10:42.535Z,3
2022-11-29T08:13:42.517Z,3
2022-11-29T08:16:42.585Z,3
2022-11-29T08:19:42.532Z,3
2022-11-29T08:22:42.534Z,3.1
2022-11-29T08:25:42.542Z,3
2022-11-29T08:28:42.588Z,3.1
2022-11-29T08:31:42.583Z,3.1
2022-11-29T08:34:42.963Z,3.1
2022-11-29T08:37:42.557Z,3.1
2022-11-29T08:40:42.560Z,3.2
2022-11-29T08:43:42.563Z,3.2
2022-11-29T08:46:42.593Z,3.2
2022-11-29T08:49:42.573Z,3.2
2022-11-29T08:52:42.573Z,3.2
2022-11-29T08:55:42.616Z,3.3
2022-11-29T08:58:42.592Z,3.3
2022-11-29T09:01:42.598Z,3.3
2022-11-29T09:04:42.908Z,3.3
2022-11-29T09:07:42.692Z,3.3
2022-11-29T09:10:42.666Z,3.3
2022-11-29T09:13:42.657Z,3.3
2022-11-29T09:16:42.681Z,3.3
2022-11-29T09:19:42.707Z,3.3
2022-11-29T09:22:42.730Z,3.4
2022-11-29T09:25:42.710Z,3.4
2022-11-29T09:28:42.707Z,3.4
2022-11-29T09:31:42.755Z,3.4
2022-11-29T09:34:42.875Z,3.4
2022-11-29T09:37:42.708Z,3.4
2022-11-29T09:40:42.756Z,3.4
2022-11-29T09:43:42.714Z,3.4
2022-11-29T09:46:42.713Z,3.5
2022-11-29T09:49:42.716Z,3.5
2022-11-29T09:52:42.727Z,3.5
2022-11-29T09:55:42.732Z,3.5
2022-11-29T09:58:42.759Z,3.5
2022-11-29T10:01:42.756Z,3.5
2022-11-29T10:04:42.815Z,3.6
2022-11-29T10:07:42.771Z,3.6
2022-11-29T10:10:42.736Z,3.6
2022-11-29T10:13:42.754Z,3.6
2022-11-29T10:16:42.812Z,3.6
2022-11-29T10:19:42.745Z,3.7
2022-11-29T10:22:42.745Z,3.7
2022-11-29T10:25:42.746Z,3.7
2022-11-29T10:28:42.753Z,3.7
2022-11-29T10:31:42.747Z,3.7
2022-11-29T10:34:43.059Z,3.6
2022-11-29T10:37:52.210Z,3.6
2022-11-29T10:40:42.897Z,3.6
2022-11-29T10:43:42.756Z,3.7
2022-11-29T10:46:42.757Z,3.6
2022-11-29T10:49:42.762Z,3.7
2022-11-29T10:52:42.793Z,3.7
2022-11-29T10:55:42.764Z,3.8
2022-11-29T10:58:42.763Z,3.8
2022-11-29T11:01:42.817Z,3.8
2022-11-29T11:04:42.994Z,3.8
2022-11-29T11:07:42.782Z,3.8
2022-11-29T11:10:42.800Z,3.9
2022-11-29T11:13:42.780Z,3.8
2022-11-29T11:16:42.833Z,3.8
2022-11-29T11:19:42.785Z,3.8
2022-11-29T11:22:42.794Z,3.9
2022-11-29T11:25:42.800Z,3.8
2022-11-29T11:28:42.825Z,3.8
2022-11-29T11:31:42.795Z,3.9
2022-11-29T11:34:43.103Z,3.8
2022-11-29T11:37:42.805Z,3.8
2022-11-29T11:40:42.844Z,3.9
2022-11-29T11:43:42.811Z,3.9
2022-11-29T11:46:42.914Z,3.9
2022-11-29T11:49:42.819Z,3.9
2022-11-29T11:52:46.219Z,3.9
2022-11-29T11:55:42.832Z,3.9
2022-11-29T11:58:42.830Z,4
2022-11-29T12:01:42.836Z,4
2022-11-29T12:04:43.263Z,4
2022-11-29T12:08:07.126Z,4
2022-11-29T12:10:42.859Z,3.9
2022-11-29T12:13:42.852Z,3.9
2022-11-29T12:16:42.857Z,3.9
2022-11-29T12:19:42.862Z,3.9
2022-11-29T12:22:48.020Z,3.9
2022-11-29T12:25:42.933Z,4
2022-11-29T12:28:42.877Z,4
2022-11-29T12:31:42.877Z,4
2022-11-29T12:34:43.454Z,3.9
2022-11-29T12:37:42.898Z,4
2022-11-29T12:40:42.924Z,4
2022-11-29T12:43:42.897Z,3.9
2022-11-29T12:46:42.979Z,3.9
2022-11-29T12:49:42.910Z,3.9
2022-11-29T12:52:42.916Z,3.9
2022-11-29T12:55:42.927Z,4
2022-11-29T12:58:45.972Z,4
2022-11-29T13:01:42.957Z,3.9
2022-11-29T13:04:43.026Z,3.9
2022-11-29T13:07:43.013Z,3.9
2022-11-29T13:10:42.952Z,3.9
2022-11-29T13:13:42.950Z,3.9
2022-11-29T13:16:43.031Z,3.9
2022-11-29T13:19:43.064Z,3.9
2022-11-29T13:22:42.979Z,3.9
2022-11-29T13:25:42.985Z,3.9
2022-11-29T13:28:43.007Z,3.9
2022-11-29T13:31:43.038Z,3.9
2022-11-29T13:34:43.257Z,3.8
2022-11-29T13:37:43.028Z,3.9
2022-11-29T13:40:43.033Z,3.8
2022-11-29T13:43:43.041Z,3.8
2022-11-29T13:46:43.065Z,3.8
2022-11-29T13:49:43.052Z,3.8
2022-11-29T13:52:43.088Z,3.8
2022-11-29T13:55:43.070Z,3.8
2022-11-29T13:58:43.074Z,3.8
2022-11-29T14:01:43.097Z,3.8
2022-11-29T14:04:43.292Z,3.8
2022-11-29T14:07:43.118Z,3.8
2022-11-29T14:10:43.130Z,3.8
2022-11-29T14:13:43.120Z,3.8
2022-11-29T14:16:43.144Z,3.8
2022-11-29T14:19:43.135Z,3.8
2022-11-29T14:22:43.146Z,3.8
2022-11-29T14:25:51.891Z,3.7
2022-11-29T14:28:43.196Z,3.7
2022-11-29T14:31:43.191Z,3.7
2022-11-29T14:34:43.517Z,3.7
2022-11-29T14:37:43.192Z,3.7
2022-11-29T14:40:43.199Z,3.7
2022-11-29T14:43:43.206Z,3.7
2022-11-29T14:46:43.282Z,3.6
2022-11-29T14:49:43.228Z,3.6
2022-11-29T14:52:43.240Z,3.6
2022-11-29T14:55:43.240Z,3.6
2022-11-29T14:58:43.254Z,3.6
2022-11-29T15:01:43.455Z,3.6
2022-11-29T15:04:43.520Z,3.6
2022-11-29T15:07:43.377Z,3.6
2022-11-29T15:10:43.296Z,3.6
2022-11-29T15:13:43.306Z,3.6
2022-11-29T15:16:43.391Z,3.6
2022-11-29T15:19:43.314Z,3.6
2022-11-29T15:22:43.346Z,3.6
2022-11-29T15:25:43.329Z,3.6
2022-11-29T15:28:43.340Z,3.6
2022-11-29T15:31:43.398Z,3.6
2022-11-29T15:34:43.490Z,3.6
2022-11-29T15:37:43.358Z,3.6
2022-11-29T15:40:43.389Z,3.6
2022-11-29T15:43:43.373Z,3.6
2022-11-29T15:46:43.383Z,3.6
2022-11-29T15:49:43.389Z,3.6
2022-11-29T15:52:43.398Z,3.7
2022-11-29T15:55:43.401Z,3.6
2022-11-29T15:58:43.432Z,3.6
2022-11-29T16:01:43.484Z,3.6
2022-11-29T16:04:46.679Z,3.7
2022-11-29T16:07:43.456Z,3.6
2022-11-29T16:10:43.476Z,3.6
2022-11-29T16:13:43.451Z,3.6
2022-11-29T16:16:43.514Z,3.6
2022-11-29T16:19:43.471Z,3.7
2022-11-29T16:22:43.473Z,3.7
2022-11-29T16:25:43.481Z,3.7
2022-11-29T16:28:43.494Z,3.7
2022-11-29T16:31:43.540Z,3.7
2022-11-29T16:34:43.806Z,3.7
2022-11-29T16:37:43.512Z,3.7
2022-11-29T16:40:43.520Z,3.7
2022-11-29T16:43:43.530Z,3.7
2022-11-29T16:46:43.543Z,3.7
2022-11-29T16:49:43.545Z,3.7
2022-11-29T16:52:43.589Z,3.7
2022-11-29T16:55:43.565Z,3.7
2022-11-29T16:59:17.517Z,3.7
2022-11-29T17:01:43.615Z,3.7
2022-11-29T17:04:43.867Z,3.7
2022-11-29T17:07:43.628Z,3.7
2022-11-29T17:10:43.629Z,3.7
2022-11-29T17:13:43.619Z,3.7
2022-11-29T17:16:43.698Z,3.7
2022-11-29T17:19:43.636Z,3.8
2022-11-29T17:22:43.642Z,3.8
2022-11-29T17:25:43.651Z,3.8
2022-11-29T17:28:43.698Z,3.8
2022-11-29T17:31:43.747Z,3.8
2022-11-29T17:34:43.812Z,3.8
2022-11-29T17:37:43.696Z,3.8
2022-11-29T17:40:43.712Z,3.8
2022-11-29T17:43:43.723Z,3.8
2022-11-29T17:46:43.761Z,3.8
2022-11-29T17:49:43.985Z,3.8
2022-11-29T17:52:43.746Z,3.9
2022-11-29T17:55:43.754Z,3.9
2022-11-29T17:58:43.764Z,3.9
2022-11-29T18:01:43.871Z,3.9
2022-11-29T18:04:43.810Z,3.9
2022-11-29T18:07:43.836Z,3.9
2022-11-29T18:10:43.800Z,3.9
2022-11-29T18:13:43.814Z,3.9
2022-11-29T18:16:43.868Z,4
2022-11-29T18:19:44.095Z,3.9
2022-11-29T18:22:43.863Z,4
2022-11-29T18:25:43.848Z,3.9
2022-11-29T18:28:43.863Z,3.9
2022-11-29T18:31:43.872Z,3.9
2022-11-29T18:34:44.077Z,4
2022-11-29T18:38:13.264Z,3.9
2022-11-29T18:40:43.929Z,3.9
2022-11-29T18:43:43.913Z,3.9
2022-11-29T18:46:43.948Z,3.9
2022-11-29T18:49:43.935Z,3.9
2022-11-29T18:52:43.944Z,3.9
2022-11-29T18:55:43.955Z,3.9
2022-11-29T18:58:43.989Z,3.9
2022-11-29T19:01:44.019Z,3.9
2022-11-29T19:04:44.347Z,3.9
2022-11-29T19:07:44.050Z,3.9
2022-11-29T19:10:44.007Z,3.9
2022-11-29T19:13:44.018Z,3.9
2022-11-29T19:16:44.056Z,3.9
2022-11-29T19:19:44.289Z,3.9
2022-11-29T19:22:44.066Z,3.9
2022-11-29T19:25:44.082Z,3.9
2022-11-29T19:28:44.087Z,3.9
2022-11-29T19:31:44.101Z,3.9
2022-11-29T19:34:44.146Z,3.9
2022-11-29T19:37:44.117Z,3.9
2022-11-29T19:40:44.131Z,3.9
2022-11-29T19:43:44.145Z,3.9
2022-11-29T19:46:44.155Z,3.9
2022-11-29T19:49:46.662Z,3.9
2022-11-29T19:52:44.191Z,3.9
2022-11-29T19:55:44.414Z,3.9
2022-11-29T19:58:44.204Z,3.9
2022-11-29T20:01:44.229Z,3.9
2022-11-29T20:04:44.210Z,3.9
2022-11-29T20:07:44.272Z,3.9
2022-11-29T20:10:44.255Z,3.9
2022-11-29T20:13:44.241Z,3.9
2022-11-29T20:16:44.253Z,3.9
2022-11-29T20:19:44.585Z,3.9
2022-11-29T20:22:44.283Z,3.9
2022-11-29T20:25:44.289Z,3.9
2022-11-29T20:28:44.321Z,3.9
2022-11-29T20:31:49.397Z,3.9
2022-11-29T20:34:44.315Z,3.9
2022-11-29T20:37:44.321Z,3.9
2022-11-29T20:40:44.333Z,3.9
2022-11-29T20:43:44.338Z,4
2022-11-29T20:46:44.420Z,3.9
2022-11-29T20:49:44.760Z,3.9
2022-11-29T20:52:44.363Z,3.9
2022-11-29T20:55:47.844Z,3.9
2022-11-29T20:58:44.380Z,4
2022-11-29T21:01:44.426Z,4
2022-11-29T21:04:44.647Z,4
2022-11-29T21:07:44.432Z,4
2022-11-29T21:10:44.414Z,3.9
2022-11-29T21:13:44.420Z,4
2022-11-29T21:16:44.427Z,4
2022-11-29T21:19:44.435Z,4
2022-11-29T21:22:44.467Z,4
2022-11-29T21:25:44.452Z,4
2022-11-29T21:28:44.462Z,4
2022-11-29T21:31:44.490Z,4
2022-11-29T21:34:44.677Z,4
2022-11-29T21:37:44.477Z,4
2022-11-29T21:40:44.512Z,4
2022-11-29T21:44:05.298Z,4
2022-11-29T21:46:44.611Z,4
2022-11-29T21:49:44.516Z,4
2022-11-29T21:52:44.514Z,4
2022-11-29T21:55:44.521Z,4
2022-11-29T21:58:44.551Z,4
2022-11-29T22:01:44.651Z,4
2022-11-29T22:04:45.039Z,4
2022-11-29T22:07:44.622Z,4
2022-11-29T22:10:44.553Z,4
2022-11-29T22:13:44.564Z,4.1
2022-11-29T22:16:44.596Z,4
2022-11-29T22:19:44.574Z,4
2022-11-29T22:22:44.584Z,4
2022-11-29T22:25:44.585Z,4
2022-11-29T22:28:44.594Z,4.1
2022-11-29T22:31:44.637Z,4.1
2022-11-29T22:34:44.881Z,4
2022-11-29T22:37:44.622Z,4.1
2022-11-29T22:40:44.618Z,4
2022-11-29T22:43:44.623Z,4
2022-11-29T22:46:44.719Z,4
2022-11-29T22:49:44.638Z,4
2022-11-29T22:52:44.667Z,4.1
2022-11-29T22:55:44.651Z,4
2022-11-29T22:58:44.651Z,4.1
2022-11-29T23:01:44.742Z,4.1
2022-11-29T23:04:44.920Z,4.1
2022-11-29T23:07:44.700Z,4.1
2022-11-29T23:10:44.693Z,4.1
2022-11-29T23:13:44.667Z,4.1
2022-11-29T23:16:44.769Z,4
2022-11-29T23:19:44.679Z,4.1
2022-11-29T23:22:44.687Z,4.1
2022-11-29T23:25:44.691Z,4.1
2022-11-29T23:28:44.724Z,4.1
2022-11-29T23:31:44.773Z,4.1
2022-11-29T23:34:45.116Z,4.1
2022-11-29T23:37:44.701Z,4.1
2022-11-29T23:40:44.699Z,4.1
2022-11-29T23:43:44.700Z,4
2022-11-29T23:46:44.732Z,4
2022-11-29T23:49:44.700Z,4
2022-11-29T23:52:44.702Z,4
2022-11-29T23:55:44.708Z,4
2022-11-29T23:58:44.717Z,4.1
